Trident, Montana
Current Conditions -  °F | °C
As of 8:56 AM on Saturday 25 Oct 2014 (Local Time) from KBZN Reporting Station
Moderate Fog Moderate Fog  
Wind Chill: 31°   Ceiling: 100
Heat Index: 31°   Visibility: 0mi
Dew Point: 31°   Wind: 3mph
Humidity: 100%   Direction: 100°E
Pressure: 30.02"   Gusts: NA
Location:  45.8877°N, 111.462°W
Report Text: KBZN 251456Z 10003KT M1/4SM FZFG VV001 M01/M01 A3002 RMK AO2 SLP183 I1001 I3003 T10061006 56005
Loading
Personal Weather Stations






























Interactive Weather Map
Tropical Storm Tracking
New forecast layout! Learn more

10-Day Weather Forecast

Advertisements
Track Severe Weather on mobile